Time;durP1;ratioP1;P1;durP2;ratioP2;P2;SDS_P1;SDS_P2;PMS_P1;PMS_P2;Temp;Humidity;BMP_temperature;BMP_pressure;BME280_temperature;BME280_humidity;BME280_pressure;Samples;Min_cycle;Max_cycle;Signal;HPM_P1;HPM_P2
2023/09/23 00:02:08;;;;;;;;;;;11.80;99.90;;;;;;7131373;19;20995;-75
2023/09/23 00:04:42;;;;;;;;;;;11.70;99.90;;;;;;7135996;19;19950;-75
2023/09/23 00:07:18;;;;;;;;;;;11.70;99.90;;;;;;7067267;19;19933;-74
2023/09/23 00:09:53;;;;;;;;;;;11.70;99.90;;;;;;7072493;19;19934;-77
2023/09/23 00:12:26;;;;;;;;;;;11.70;99.90;;;;;;7090244;19;20170;-75
2023/09/23 00:14:59;;;;;;;;;;;11.80;99.90;;;;;;7144463;19;19934;-76
2023/09/23 00:17:32;;;;;;;;;;;11.80;99.90;;;;;;7137405;19;19918;-76
2023/09/23 00:20:14;;;;;;;;;;;11.80;99.90;;;;;;7143586;19;19947;-76
2023/09/23 00:22:48;;;;;;;;;;;11.80;99.90;;;;;;7131095;19;21551;-74
2023/09/23 00:25:23;;;;;;;;;;;11.80;99.90;;;;;;7155952;19;20014;-74
2023/09/23 00:27:56;;;;;;;;;;;11.90;99.90;;;;;;7151827;19;20006;-75
2023/09/23 00:30:29;;;;;;;;;;;11.90;99.90;;;;;;7131151;19;19922;-77
2023/09/23 00:33:02;;;;;;;;;;;11.90;99.90;;;;;;7140199;19;20431;-74
2023/09/23 00:35:36;;;;;;;;;;;11.90;99.90;;;;;;7131152;19;19927;-74
2023/09/23 00:38:09;;;;;;;;;;;11.90;99.90;;;;;;7119717;19;20478;-73
2023/09/23 00:40:43;;;;;;;;;;;11.90;99.90;;;;;;7120046;19;19961;-76
2023/09/23 00:43:17;;;;;;;;;;;11.80;99.90;;;;;;7124900;19;19918;-74
2023/09/23 00:45:54;;;;;;;;;;;11.90;99.90;;;;;;7042599;19;19929;-75
2023/09/23 00:48:30;;;;;;;;;;;11.90;99.90;;;;;;7034553;19;20166;-75
2023/09/23 00:51:04;;;;;;;;;;;11.80;99.90;;;;;;7039357;19;20483;-76
2023/09/23 00:53:39;;;;;;;;;;;11.80;99.90;;;;;;7243826;19;19933;-76
2023/09/23 00:56:15;;;;;;;;;;;11.80;99.90;;;;;;7579295;19;19930;-76
2023/09/23 00:58:47;;;;;;;;;;;11.80;99.90;;;;;;7601690;19;19926;-76
2023/09/23 01:01:21;;;;;;;;;;;11.80;99.90;;;;;;7595717;19;19971;-77
2023/09/23 01:03:53;;;;;;;;;;;11.90;99.90;;;;;;7592198;19;20009;-76
2023/09/23 01:06:28;;;;;;;;;;;11.90;99.90;;;;;;7592635;19;20776;-74
2023/09/23 01:09:06;;;;;;;;;;;11.90;99.90;;;;;;7594684;19;19953;-76
2023/09/23 01:11:38;;;;;;;;;;;11.90;99.90;;;;;;7576686;19;20836;-76
2023/09/23 01:14:10;;;;;;;;;;;11.90;99.90;;;;;;7587079;19;19923;-76
2023/09/23 01:16:43;;;;;;;;;;;11.90;99.90;;;;;;7599792;19;19915;-76
2023/09/23 01:19:18;;;;;;;;;;;12.00;99.90;;;;;;7597820;19;19918;-74
2023/09/23 01:21:50;;;;;;;;;;;11.90;99.90;;;;;;7603998;19;19922;-75
2023/09/23 01:24:24;;;;;;;;;;;11.90;99.90;;;;;;7585488;19;19926;-76
2023/09/23 01:26:56;;;;;;;;;;;11.90;99.90;;;;;;7600614;19;19918;-75
2023/09/23 01:29:28;;;;;;;;;;;11.80;99.90;;;;;;7590334;19;19930;-74
2023/09/23 01:32:19;;;;;;;;;;;11.80;99.90;;;;;;7598526;19;19956;-75
2023/09/23 01:34:52;;;;;;;;;;;11.80;99.90;;;;;;7599492;19;19963;-75
2023/09/23 01:37:25;;;;;;;;;;;11.80;99.90;;;;;;7598937;19;19918;-74
2023/09/23 01:39:58;;;;;;;;;;;11.90;99.90;;;;;;7588036;19;19927;-75
2023/09/23 01:42:32;;;;;;;;;;;11.80;99.90;;;;;;7586273;19;20336;-74
2023/09/23 01:45:06;;;;;;;;;;;11.80;99.90;;;;;;7600358;19;20344;-74
2023/09/23 01:47:39;;;;;;;;;;;11.80;99.90;;;;;;7602884;19;19919;-75
2023/09/23 01:50:13;;;;;;;;;;;11.70;99.90;;;;;;7588746;19;21378;-75
2023/09/23 01:52:45;;;;;;;;;;;11.70;99.90;;;;;;7598900;19;19950;-75
2023/09/23 01:55:18;;;;;;;;;;;11.60;99.90;;;;;;7575647;19;19998;-75
2023/09/23 01:57:50;;;;;;;;;;;11.60;99.90;;;;;;7599099;19;20464;-74
2023/09/23 02:00:28;;;;;;;;;;;11.70;99.90;;;;;;7586357;19;21475;-75
2023/09/23 02:03:01;;;;;;;;;;;11.70;99.90;;;;;;7593629;19;19923;-75
2023/09/23 02:05:34;;;;;;;;;;;11.70;99.90;;;;;;7599043;19;19930;-75
2023/09/23 02:08:07;;;;;;;;;;;11.70;99.90;;;;;;7593002;19;20001;-76
2023/09/23 02:10:42;;;;;;;;;;;11.80;99.90;;;;;;7581972;19;19945;-75
2023/09/23 02:13:14;;;;;;;;;;;11.80;99.90;;;;;;7592149;19;19922;-75
2023/09/23 02:15:46;;;;;;;;;;;11.90;99.90;;;;;;7594940;19;19915;-75
2023/09/23 02:18:19;;;;;;;;;;;11.90;99.90;;;;;;7591682;19;19929;-75
2023/09/23 02:20:51;;;;;;;;;;;11.90;99.90;;;;;;7596744;19;19925;-76
2023/09/23 02:23:24;;;;;;;;;;;12.00;99.90;;;;;;7590406;19;19918;-75
2023/09/23 02:25:57;;;;;;;;;;;11.90;99.90;;;;;;7589126;19;19926;-75
2023/09/23 02:28:29;;;;;;;;;;;11.90;99.90;;;;;;7597933;19;19922;-75
2023/09/23 02:31:02;;;;;;;;;;;11.80;99.90;;;;;;7592321;19;19934;-75
2023/09/23 02:33:34;;;;;;;;;;;11.70;99.90;;;;;;7597001;19;19926;-75
2023/09/23 02:36:08;;;;;;;;;;;11.70;99.90;;;;;;7588258;19;20465;-76
2023/09/23 02:38:42;;;;;;;;;;;11.60;99.90;;;;;;7593389;19;20670;-76
2023/09/23 02:41:16;;;;;;;;;;;11.60;99.90;;;;;;7267226;19;21513;-74
2023/09/23 02:43:52;;;;;;;;;;;11.70;99.90;;;;;;7015047;19;21116;-74
2023/09/23 02:46:25;;;;;;;;;;;11.60;99.90;;;;;;6953827;19;19923;-74
2023/09/23 02:48:58;;;;;;;;;;;11.60;99.90;;;;;;6969565;19;19931;-74
2023/09/23 02:51:31;;;;;;;;;;;11.60;99.90;;;;;;6980046;19;19938;-73
2023/09/23 02:54:05;;;;;;;;;;;11.60;99.90;;;;;;6981440;19;19915;-76
2023/09/23 02:56:37;;;;;;;;;;;11.60;99.90;;;;;;7575031;19;19975;-75
2023/09/23 02:59:21;;;;;;;;;;;11.60;99.90;;;;;;7585311;19;19930;-76
2023/09/23 03:01:53;;;;;;;;;;;11.60;99.90;;;;;;7584914;19;20959;-76
2023/09/23 03:04:28;;;;;;;;;;;11.60;99.90;;;;;;7593751;19;19998;-76
2023/09/23 03:07:04;;;;;;;;;;;11.70;99.90;;;;;;7595278;19;19918;-76
2023/09/23 03:09:43;;;;;;;;;;;11.60;99.90;;;;;;7580216;19;20380;-77
2023/09/23 03:12:19;;;;;;;;;;;11.70;99.90;;;;;;7586363;19;19924;-76
2023/09/23 03:14:52;;;;;;;;;;;11.70;99.90;;;;;;7588858;19;20212;-75
2023/09/23 03:17:24;;;;;;;;;;;11.60;99.90;;;;;;7581743;19;19919;-74
2023/09/23 03:20:00;;;;;;;;;;;11.60;99.90;;;;;;7589458;19;19922;-74
2023/09/23 03:22:32;;;;;;;;;;;11.60;99.90;;;;;;7575551;19;19915;-75
2023/09/23 03:25:07;;;;;;;;;;;11.50;99.90;;;;;;7580018;19;19957;-74
2023/09/23 03:27:39;;;;;;;;;;;11.60;99.90;;;;;;7591633;19;19948;-74
2023/09/23 03:30:12;;;;;;;;;;;11.60;99.90;;;;;;7576161;19;19982;-76
2023/09/23 03:32:46;;;;;;;;;;;11.60;99.90;;;;;;7576266;19;19946;-76
2023/09/23 03:35:23;;;;;;;;;;;11.60;99.90;;;;;;7580488;19;19945;-76
2023/09/23 03:37:56;;;;;;;;;;;11.70;99.90;;;;;;7590579;19;19989;-76
2023/09/23 03:40:29;;;;;;;;;;;11.70;99.90;;;;;;7590660;19;20542;-76
2023/09/23 03:43:02;;;;;;;;;;;11.70;99.90;;;;;;7588490;19;20977;-76
2023/09/23 03:45:34;;;;;;;;;;;11.70;99.90;;;;;;7586427;19;19921;-76
2023/09/23 03:48:10;;;;;;;;;;;11.70;99.90;;;;;;7607519;19;19915;-76
2023/09/23 03:50:42;;;;;;;;;;;11.70;99.90;;;;;;7599439;19;20818;-75
2023/09/23 03:53:14;;;;;;;;;;;11.70;99.90;;;;;;7602292;19;19927;-75
2023/09/23 03:55:49;;;;;;;;;;;11.80;99.90;;;;;;7599721;19;19926;-75
2023/09/23 03:58:21;;;;;;;;;;;11.80;99.90;;;;;;7603088;19;19923;-75
2023/09/23 04:00:56;;;;;;;;;;;11.80;99.90;;;;;;7597619;19;19922;-75
2023/09/23 04:03:29;;;;;;;;;;;11.80;99.90;;;;;;7590330;19;19922;-75
2023/09/23 04:06:01;;;;;;;;;;;11.70;99.90;;;;;;7586733;19;19919;-75
2023/09/23 04:08:33;;;;;;;;;;;11.70;99.90;;;;;;7585659;19;20282;-75
2023/09/23 04:11:05;;;;;;;;;;;11.70;99.90;;;;;;7587384;19;19922;-75
2023/09/23 04:13:38;;;;;;;;;;;11.80;99.90;;;;;;7578838;19;19919;-75
2023/09/23 04:16:11;;;;;;;;;;;11.70;99.90;;;;;;7583908;19;19919;-76
2023/09/23 04:18:43;;;;;;;;;;;11.80;99.90;;;;;;7602215;19;20254;-75
2023/09/23 04:21:17;;;;;;;;;;;11.70;99.90;;;;;;7600605;19;19971;-75
2023/09/23 04:23:52;;;;;;;;;;;11.80;99.90;;;;;;7588471;19;20045;-75
2023/09/23 04:26:24;;;;;;;;;;;11.80;99.90;;;;;;7594339;19;19929;-75
2023/09/23 04:28:56;;;;;;;;;;;11.80;99.90;;;;;;7598654;19;20522;-75
2023/09/23 04:31:28;;;;;;;;;;;11.80;99.90;;;;;;7600585;19;19927;-75
2023/09/23 04:34:01;;;;;;;;;;;11.80;99.90;;;;;;7601506;19;19918;-75
2023/09/23 04:36:34;;;;;;;;;;;11.80;99.90;;;;;;7598203;19;20970;-74
2023/09/23 04:39:06;;;;;;;;;;;11.80;99.90;;;;;;7594523;19;20427;-75
2023/09/23 04:41:40;;;;;;;;;;;11.80;99.90;;;;;;7595253;19;19918;-76
2023/09/23 04:44:12;;;;;;;;;;;11.80;99.90;;;;;;7598763;19;19985;-75
2023/09/23 04:46:45;;;;;;;;;;;11.90;99.90;;;;;;7599988;19;21012;-75
2023/09/23 04:49:17;;;;;;;;;;;11.90;99.90;;;;;;7602734;19;19933;-75
2023/09/23 04:51:49;;;;;;;;;;;11.90;99.90;;;;;;7592135;19;19922;-75
2023/09/23 04:54:22;;;;;;;;;;;11.80;99.90;;;;;;7587108;19;19918;-76
2023/09/23 04:56:55;;;;;;;;;;;11.80;99.90;;;;;;7596832;19;19931;-75
2023/09/23 04:59:27;;;;;;;;;;;11.80;99.90;;;;;;7592800;19;19926;-75
2023/09/23 05:02:00;;;;;;;;;;;11.80;99.90;;;;;;7589287;19;19919;-74
2023/09/23 05:04:32;;;;;;;;;;;11.80;99.90;;;;;;7592570;19;19917;-75
2023/09/23 05:07:05;;;;;;;;;;;11.90;99.90;;;;;;7581971;19;19933;-75
2023/09/23 05:09:38;;;;;;;;;;;11.80;99.90;;;;;;7592455;19;19919;-74
2023/09/23 05:12:10;;;;;;;;;;;11.90;99.90;;;;;;7594339;19;19970;-74
2023/09/23 05:14:43;;;;;;;;;;;11.90;99.90;;;;;;7595285;19;19922;-77
2023/09/23 05:17:15;;;;;;;;;;;11.90;99.90;;;;;;7588110;19;19925;-77
2023/09/23 05:19:49;;;;;;;;;;;11.90;99.90;;;;;;7589453;19;19923;-76
2023/09/23 05:22:22;;;;;;;;;;;11.90;99.90;;;;;;7562393;19;19923;-76
2023/09/23 05:24:57;;;;;;;;;;;11.90;99.90;;;;;;7594496;19;19929;-77
2023/09/23 05:27:32;;;;;;;;;;;11.90;99.90;;;;;;7469048;19;20978;-76
2023/09/23 05:30:07;;;;;;;;;;;11.90;99.90;;;;;;6892123;19;21292;-76
2023/09/23 05:32:39;;;;;;;;;;;11.90;99.90;;;;;;6895757;19;20697;-73
2023/09/23 05:35:12;;;;;;;;;;;11.90;99.90;;;;;;6901355;19;21941;-73
2023/09/23 05:37:44;;;;;;;;;;;11.90;99.90;;;;;;6906529;19;20965;-74
2023/09/23 05:40:26;;;;;;;;;;;11.90;99.90;;;;;;6896867;19;21106;-73
2023/09/23 05:42:59;;;;;;;;;;;11.90;99.90;;;;;;6891576;19;21095;-73
2023/09/23 05:45:32;;;;;;;;;;;11.90;99.90;;;;;;6899217;19;20437;-75
2023/09/23 05:48:05;;;;;;;;;;;11.90;99.90;;;;;;6901480;19;20655;-73
2023/09/23 05:50:38;;;;;;;;;;;11.90;99.90;;;;;;6899459;19;20692;-76
2023/09/23 05:53:11;;;;;;;;;;;11.90;99.90;;;;;;6885104;19;20840;-76
2023/09/23 05:55:44;;;;;;;;;;;11.90;99.90;;;;;;6892711;19;20400;-75
2023/09/23 05:58:16;;;;;;;;;;;11.90;99.90;;;;;;6893020;19;20590;-73
2023/09/23 06:00:50;;;;;;;;;;;11.90;99.90;;;;;;6895290;19;20676;-74
2023/09/23 06:03:23;;;;;;;;;;;11.90;99.90;;;;;;6883705;19;20320;-73
2023/09/23 06:05:56;;;;;;;;;;;12.00;99.90;;;;;;6854361;19;20388;-75
2023/09/23 06:08:28;;;;;;;;;;;11.90;99.90;;;;;;6897055;19;21401;-73
2023/09/23 06:11:03;;;;;;;;;;;12.00;99.90;;;;;;6901424;19;20917;-74
2023/09/23 06:13:36;;;;;;;;;;;12.00;99.90;;;;;;6895118;19;20404;-74
2023/09/23 06:16:08;;;;;;;;;;;12.00;99.90;;;;;;6971648;19;21953;-75
2023/09/23 06:18:40;;;;;;;;;;;12.00;99.90;;;;;;6891748;19;21115;-76
2023/09/23 06:21:13;;;;;;;;;;;12.10;99.90;;;;;;6883761;19;19919;-75
2023/09/23 06:23:46;;;;;;;;;;;12.00;99.90;;;;;;6940379;19;20590;-76
2023/09/23 06:26:20;;;;;;;;;;;12.10;99.90;;;;;;6912861;19;19923;-74
2023/09/23 06:28:52;;;;;;;;;;;12.10;99.90;;;;;;6974032;19;21727;-76
2023/09/23 06:31:25;;;;;;;;;;;12.10;99.90;;;;;;6959263;19;20946;-75
2023/09/23 06:33:58;;;;;;;;;;;12.10;99.90;;;;;;6917732;19;20687;-75
2023/09/23 06:36:30;;;;;;;;;;;12.10;99.90;;;;;;6892436;19;20606;-76
2023/09/23 06:39:03;;;;;;;;;;;12.10;99.90;;;;;;6896765;19;20759;-74
2023/09/23 06:41:36;;;;;;;;;;;12.20;99.90;;;;;;6898947;19;20504;-73
2023/09/23 06:44:10;;;;;;;;;;;12.30;99.90;;;;;;6910158;19;20300;-74
2023/09/23 06:46:42;;;;;;;;;;;12.30;99.90;;;;;;6949218;19;20529;-73
2023/09/23 06:49:15;;;;;;;;;;;12.40;99.90;;;;;;7566702;19;19922;-78
2023/09/23 06:51:47;;;;;;;;;;;12.40;99.90;;;;;;7557557;19;20136;-77
2023/09/23 06:54:20;;;;;;;;;;;12.30;99.90;;;;;;7563769;19;19914;-77
2023/09/23 06:56:53;;;;;;;;;;;12.30;99.90;;;;;;7538137;19;20468;-77
2023/09/23 06:59:25;;;;;;;;;;;12.40;99.90;;;;;;7538953;19;20010;-77
2023/09/23 07:01:57;;;;;;;;;;;12.40;99.90;;;;;;7548011;19;19932;-76
2023/09/23 07:04:30;;;;;;;;;;;12.40;99.90;;;;;;7550057;19;20456;-75
2023/09/23 07:07:02;;;;;;;;;;;12.40;99.90;;;;;;7576742;19;19933;-76
2023/09/23 07:09:34;;;;;;;;;;;12.50;99.90;;;;;;7410660;19;19919;-75
2023/09/23 07:12:09;;;;;;;;;;;12.50;99.90;;;;;;6904364;19;20839;-75
2023/09/23 07:14:41;;;;;;;;;;;12.60;99.90;;;;;;6941115;19;20701;-76
2023/09/23 07:17:14;;;;;;;;;;;12.60;99.90;;;;;;7055797;19;19923;-76
2023/09/23 07:19:47;;;;;;;;;;;12.60;99.90;;;;;;7040812;19;20731;-75
2023/09/23 07:22:20;;;;;;;;;;;12.60;99.90;;;;;;7021895;19;21454;-75
2023/09/23 07:24:52;;;;;;;;;;;12.70;99.90;;;;;;7025564;19;19933;-76
2023/09/23 07:27:24;;;;;;;;;;;12.70;99.90;;;;;;7041287;19;19934;-75
2023/09/23 07:29:58;;;;;;;;;;;12.70;99.90;;;;;;6983753;19;20487;-74
2023/09/23 07:32:30;;;;;;;;;;;12.80;99.90;;;;;;6907515;19;19919;-76
2023/09/23 07:35:03;;;;;;;;;;;12.80;99.90;;;;;;6937382;19;19922;-78
2023/09/23 07:37:36;;;;;;;;;;;12.80;99.90;;;;;;7030765;19;21072;-77
2023/09/23 07:40:09;;;;;;;;;;;12.80;99.90;;;;;;7050883;19;20392;-76
2023/09/23 07:42:42;;;;;;;;;;;12.80;99.90;;;;;;7016840;19;20709;-77
2023/09/23 07:45:14;;;;;;;;;;;12.70;99.90;;;;;;7009209;19;19926;-77
2023/09/23 07:47:48;;;;;;;;;;;12.70;99.90;;;;;;7038960;19;20400;-76
2023/09/23 07:50:21;;;;;;;;;;;12.60;99.90;;;;;;6881349;19;19925;-76
2023/09/23 07:52:54;;;;;;;;;;;12.60;99.90;;;;;;6898946;19;20320;-76
2023/09/23 07:55:27;;;;;;;;;;;12.50;99.90;;;;;;6926567;19;21301;-75
2023/09/23 07:57:59;;;;;;;;;;;12.50;99.90;;;;;;6911675;19;20690;-76
2023/09/23 08:00:32;;;;;;;;;;;12.70;99.90;;;;;;6896450;19;20459;-77
2023/09/23 08:03:04;;;;;;;;;;;12.70;99.90;;;;;;6911238;19;20656;-75
2023/09/23 08:05:37;;;;;;;;;;;12.60;99.90;;;;;;6897929;19;20643;-75
2023/09/23 08:08:10;;;;;;;;;;;12.80;99.90;;;;;;6908445;19;20735;-76
2023/09/23 08:10:43;;;;;;;;;;;12.80;99.90;;;;;;6886518;19;20419;-77
2023/09/23 08:13:20;;;;;;;;;;;13.00;99.90;;;;;;6910256;19;20590;-77
2023/09/23 08:15:58;;;;;;;;;;;13.00;99.90;;;;;;6979381;19;20216;-74
2023/09/23 08:18:31;;;;;;;;;;;13.00;99.90;;;;;;6938582;19;21125;-74
2023/09/23 08:21:05;;;;;;;;;;;12.90;99.90;;;;;;6890817;19;21493;-74
2023/09/23 08:23:38;;;;;;;;;;;13.00;99.90;;;;;;6899457;19;20591;-72
2023/09/23 08:26:11;;;;;;;;;;;13.00;99.90;;;;;;6982832;19;19915;-73
2023/09/23 08:28:45;;;;;;;;;;;13.10;99.90;;;;;;7017877;19;20295;-75
2023/09/23 08:31:18;;;;;;;;;;;13.10;99.90;;;;;;6971354;19;21352;-75
2023/09/23 08:33:51;;;;;;;;;;;13.10;99.90;;;;;;6898933;19;20601;-75
2023/09/23 08:36:24;;;;;;;;;;;13.10;99.90;;;;;;6957459;19;19926;-75
2023/09/23 08:38:56;;;;;;;;;;;13.10;99.90;;;;;;7042226;19;19919;-74
2023/09/23 08:41:30;;;;;;;;;;;13.00;99.90;;;;;;7035577;19;19922;-76
2023/09/23 08:44:03;;;;;;;;;;;13.10;99.90;;;;;;7035057;19;19967;-76
2023/09/23 08:46:36;;;;;;;;;;;13.20;99.90;;;;;;7041815;19;21073;-75
2023/09/23 08:49:10;;;;;;;;;;;13.30;99.90;;;;;;7254568;19;20491;-75
2023/09/23 08:51:43;;;;;;;;;;;13.40;99.90;;;;;;7553864;19;19914;-75
2023/09/23 08:54:15;;;;;;;;;;;13.40;99.90;;;;;;7559874;19;19969;-74
2023/09/23 08:56:47;;;;;;;;;;;13.50;99.90;;;;;;7543301;19;20285;-76
2023/09/23 08:59:21;;;;;;;;;;;13.60;99.90;;;;;;7572603;19;19922;-78
2023/09/23 09:01:54;;;;;;;;;;;13.70;99.90;;;;;;7566665;19;19947;-77
2023/09/23 09:04:26;;;;;;;;;;;13.60;99.90;;;;;;7339870;19;21675;-75
2023/09/23 09:06:59;;;;;;;;;;;13.50;99.90;;;;;;7237048;19;21254;-74
2023/09/23 09:09:32;;;;;;;;;;;13.50;99.90;;;;;;6918234;19;21687;-72
2023/09/23 09:12:04;;;;;;;;;;;13.50;99.90;;;;;;7017878;19;19922;-72
2023/09/23 09:14:37;;;;;;;;;;;13.60;99.90;;;;;;7036492;19;20531;-72
2023/09/23 09:17:12;;;;;;;;;;;13.70;99.90;;;;;;7140725;19;20942;-76
2023/09/23 09:19:45;;;;;;;;;;;13.70;99.90;;;;;;7275830;19;19919;-74
2023/09/23 09:22:22;;;;;;;;;;;13.80;99.90;;;;;;7112466;19;21452;-73
2023/09/23 09:24:54;;;;;;;;;;;13.90;99.90;;;;;;7035692;19;19919;-74
2023/09/23 09:27:28;;;;;;;;;;;13.80;99.90;;;;;;7028887;19;19926;-76
2023/09/23 09:30:00;;;;;;;;;;;13.90;99.90;;;;;;6995991;19;20018;-73
2023/09/23 09:32:45;;;;;;;;;;;14.00;99.90;;;;;;6897552;19;20398;-73
2023/09/23 09:35:18;;;;;;;;;;;14.10;99.90;;;;;;6924704;19;19931;-77
2023/09/23 09:37:51;;;;;;;;;;;14.20;99.90;;;;;;7009382;19;20119;-74
2023/09/23 09:40:38;;;;;;;;;;;14.20;99.90;;;;;;7186379;19;20819;-74
2023/09/23 09:43:11;;;;;;;;;;;14.20;99.90;;;;;;6998905;19;19923;-73
2023/09/23 09:45:44;;;;;;;;;;;14.20;99.90;;;;;;7127672;19;20015;-73
2023/09/23 09:48:19;;;;;;;;;;;14.10;99.90;;;;;;7075138;19;20672;-75
2023/09/23 09:50:53;;;;;;;;;;;14.20;99.90;;;;;;6980979;19;20346;-76
2023/09/23 09:53:25;;;;;;;;;;;14.20;99.90;;;;;;7028927;19;20345;-72
2023/09/23 09:55:58;;;;;;;;;;;14.20;99.90;;;;;;7139468;19;19915;-72
2023/09/23 09:58:38;;;;;;;;;;;14.20;99.90;;;;;;7090241;19;19953;-72
2023/09/23 10:01:12;;;;;;;;;;;14.30;99.90;;;;;;6860472;19;20046;-71
2023/09/23 10:03:49;;;;;;;;;;;14.40;99.90;;;;;;6865800;19;20759;-72
2023/09/23 10:06:22;;;;;;;;;;;14.40;99.90;;;;;;6863527;19;19918;-72
2023/09/23 10:08:57;;;;;;;;;;;14.40;99.90;;;;;;6869687;19;20626;-72
2023/09/23 10:11:34;;;;;;;;;;;14.60;99.90;;;;;;6856048;19;20704;-73
2023/09/23 10:14:11;;;;;;;;;;;14.70;99.90;;;;;;6851093;19;19922;-72
2023/09/23 10:16:51;;;;;;;;;;;14.80;99.90;;;;;;6865067;19;20698;-73
2023/09/23 10:19:30;;;;;;;;;;;14.80;99.90;;;;;;6830661;19;22118;-73
2023/09/23 10:22:08;;;;;;;;;;;14.70;99.90;;;;;;6845464;19;20424;-73
2023/09/23 10:24:41;;;;;;;;;;;14.50;99.90;;;;;;6883177;19;19922;-72
2023/09/23 10:27:18;;;;;;;;;;;14.50;99.90;;;;;;6888854;19;21765;-73
2023/09/23 10:29:51;;;;;;;;;;;14.40;99.90;;;;;;6868092;19;20429;-72
2023/09/23 10:32:23;;;;;;;;;;;14.60;99.90;;;;;;7037472;19;19970;-73
2023/09/23 10:34:56;;;;;;;;;;;14.60;99.90;;;;;;7290459;19;19927;-70
2023/09/23 10:37:30;;;;;;;;;;;14.70;99.90;;;;;;7320264;19;20229;-74
2023/09/23 10:40:12;;;;;;;;;;;14.70;99.90;;;;;;7316239;19;20591;-72
2023/09/23 10:42:48;;;;;;;;;;;14.70;99.90;;;;;;7256853;19;20690;-74
2023/09/23 10:45:21;;;;;;;;;;;14.70;99.90;;;;;;7594129;19;19930;-75
2023/09/23 10:47:54;;;;;;;;;;;14.60;99.90;;;;;;7604085;19;20986;-74
2023/09/23 10:50:27;;;;;;;;;;;14.70;99.90;;;;;;7607173;19;19926;-74
2023/09/23 10:52:59;;;;;;;;;;;14.60;99.90;;;;;;7596878;19;20345;-75
2023/09/23 10:55:33;;;;;;;;;;;14.70;99.90;;;;;;7600906;19;19956;-75
2023/09/23 10:58:08;;;;;;;;;;;14.70;99.90;;;;;;7607282;19;20301;-75
2023/09/23 11:00:41;;;;;;;;;;;14.70;99.90;;;;;;7598963;19;19926;-74
2023/09/23 11:03:17;;;;;;;;;;;14.70;99.90;;;;;;7592852;19;20742;-74
2023/09/23 11:05:51;;;;;;;;;;;14.70;99.90;;;;;;7597145;19;20489;-74
2023/09/23 11:08:23;;;;;;;;;;;14.70;99.90;;;;;;7573791;19;19982;-73
2023/09/23 11:10:57;;;;;;;;;;;14.70;99.90;;;;;;7598754;19;19923;-75
2023/09/23 11:13:31;;;;;;;;;;;14.70;99.90;;;;;;7584057;19;20763;-74
2023/09/23 11:16:08;;;;;;;;;;;14.80;99.90;;;;;;7588227;19;19925;-73
2023/09/23 11:18:42;;;;;;;;;;;14.80;99.90;;;;;;7591357;19;19918;-74
2023/09/23 11:21:15;;;;;;;;;;;14.70;99.90;;;;;;7607966;19;19938;-76
2023/09/23 11:23:59;;;;;;;;;;;14.70;99.90;;;;;;7600977;19;19911;-75
2023/09/23 11:26:32;;;;;;;;;;;14.60;99.90;;;;;;7589652;19;19984;-75
2023/09/23 11:29:05;;;;;;;;;;;14.70;99.90;;;;;;7606958;19;19925;-76
2023/09/23 11:31:37;;;;;;;;;;;14.60;99.90;;;;;;7609605;19;20640;-75
2023/09/23 11:34:10;;;;;;;;;;;14.70;99.90;;;;;;7603578;19;22239;-71
2023/09/23 11:36:42;;;;;;;;;;;14.80;99.90;;;;;;7608414;19;19930;-75
2023/09/23 11:39:14;;;;;;;;;;;14.90;99.90;;;;;;7606332;19;19926;-75
2023/09/23 11:41:46;;;;;;;;;;;14.80;99.90;;;;;;7607507;19;20447;-73
2023/09/23 11:44:19;;;;;;;;;;;14.70;99.90;;;;;;7606278;19;19918;-75
2023/09/23 11:46:51;;;;;;;;;;;14.70;99.90;;;;;;7599515;19;20033;-74
2023/09/23 11:49:23;;;;;;;;;;;14.70;99.90;;;;;;7603692;19;19914;-75
2023/09/23 11:51:56;;;;;;;;;;;14.70;99.90;;;;;;7603728;19;20757;-75
2023/09/23 11:54:28;;;;;;;;;;;14.80;99.90;;;;;;7600999;19;19919;-76
2023/09/23 11:57:00;;;;;;;;;;;14.90;99.90;;;;;;7605849;19;19918;-76
2023/09/23 11:59:32;;;;;;;;;;;15.00;99.90;;;;;;7610441;19;19922;-75
2023/09/23 12:02:05;;;;;;;;;;;15.10;99.90;;;;;;7601214;19;20478;-76
2023/09/23 12:04:37;;;;;;;;;;;15.10;99.90;;;;;;7598814;19;19925;-76
2023/09/23 12:07:11;;;;;;;;;;;15.20;99.90;;;;;;7604154;19;19922;-76
2023/09/23 12:09:43;;;;;;;;;;;15.40;99.90;;;;;;7601719;19;20014;-75
2023/09/23 12:12:16;;;;;;;;;;;15.60;99.90;;;;;;7608879;19;19946;-74
2023/09/23 12:14:48;;;;;;;;;;;15.60;99.90;;;;;;7607368;19;20015;-76
2023/09/23 12:17:20;;;;;;;;;;;15.60;99.90;;;;;;7597423;19;19937;-74
2023/09/23 12:19:53;;;;;;;;;;;15.70;99.90;;;;;;7233747;19;19926;-75
2023/09/23 12:22:26;;;;;;;;;;;15.60;99.90;;;;;;7161932;19;19945;-72
2023/09/23 12:24:59;;;;;;;;;;;15.60;99.90;;;;;;7167304;19;20967;-73
2023/09/23 12:27:33;;;;;;;;;;;15.50;99.90;;;;;;7314276;19;20050;-71
2023/09/23 12:30:06;;;;;;;;;;;15.30;99.90;;;;;;7217660;19;20026;-71
2023/09/23 12:32:39;;;;;;;;;;;15.40;99.90;;;;;;7181039;19;19926;-70
2023/09/23 12:35:12;;;;;;;;;;;15.50;99.90;;;;;;7188247;19;20253;-73
2023/09/23 12:37:46;;;;;;;;;;;15.60;99.90;;;;;;7118433;19;21498;-71
2023/09/23 12:40:19;;;;;;;;;;;15.60;99.90;;;;;;7144712;19;22063;-71
2023/09/23 12:42:51;;;;;;;;;;;15.70;99.90;;;;;;7171754;19;21009;-72
2023/09/23 12:45:24;;;;;;;;;;;15.70;99.90;;;;;;7384527;19;19919;-75
2023/09/23 12:47:56;;;;;;;;;;;15.80;99.90;;;;;;7602474;19;19919;-73
2023/09/23 12:50:29;;;;;;;;;;;15.80;99.90;;;;;;7481927;19;20506;-72
2023/09/23 12:53:01;;;;;;;;;;;15.70;99.90;;;;;;7113255;19;21222;-73
2023/09/23 12:55:34;;;;;;;;;;;15.60;99.90;;;;;;7141698;19;20812;-71
2023/09/23 12:58:06;;;;;;;;;;;15.60;99.90;;;;;;7155991;19;20456;-74
2023/09/23 13:00:41;;;;;;;;;;;15.60;99.90;;;;;;7137937;19;19922;-73
2023/09/23 13:03:16;;;;;;;;;;;15.70;99.90;;;;;;7137072;19;19922;-72
2023/09/23 13:05:51;;;;;;;;;;;15.60;99.90;;;;;;7148988;19;19925;-73
2023/09/23 13:08:23;;;;;;;;;;;15.60;99.90;;;;;;7089021;19;20329;-72
2023/09/23 13:11:01;;;;;;;;;;;15.80;99.90;;;;;;7142558;19;22584;-72
2023/09/23 13:13:33;;;;;;;;;;;15.70;99.90;;;;;;7141783;19;20001;-70
2023/09/23 13:16:07;;;;;;;;;;;15.70;99.90;;;;;;7107295;19;20102;-71
2023/09/23 13:18:40;;;;;;;;;;;15.80;99.90;;;;;;7156605;19;20478;-72
2023/09/23 13:21:13;;;;;;;;;;;15.80;99.90;;;;;;7105837;19;20845;-74
2023/09/23 13:23:45;;;;;;;;;;;16.00;99.90;;;;;;7060691;19;20182;-71
2023/09/23 13:26:20;;;;;;;;;;;15.90;99.90;;;;;;7103209;19;21459;-73
2023/09/23 13:28:53;;;;;;;;;;;16.00;99.90;;;;;;7122748;19;20610;-71
2023/09/23 13:31:25;;;;;;;;;;;15.90;99.90;;;;;;7106708;19;20423;-72
2023/09/23 13:33:59;;;;;;;;;;;15.90;99.90;;;;;;7135737;19;19927;-73
2023/09/23 13:36:32;;;;;;;;;;;15.90;99.90;;;;;;7081204;19;20179;-71
2023/09/23 13:39:05;;;;;;;;;;;16.10;99.90;;;;;;7078737;19;21004;-73
2023/09/23 13:41:37;;;;;;;;;;;16.40;99.90;;;;;;7092012;19;20184;-72
2023/09/23 13:44:10;;;;;;;;;;;16.60;99.90;;;;;;7096979;19;19918;-71
2023/09/23 13:46:43;;;;;;;;;;;16.90;99.90;;;;;;7104612;19;19918;-70
2023/09/23 13:49:16;;;;;;;;;;;17.60;99.90;;;;;;7134838;19;19928;-70
2023/09/23 13:51:48;;;;;;;;;;;17.70;99.90;;;;;;7122377;19;19921;-71
2023/09/23 13:54:22;;;;;;;;;;;18.10;99.90;;;;;;7099912;19;19915;-72
2023/09/23 13:56:54;;;;;;;;;;;19.00;99.90;;;;;;7090559;19;19918;-71
2023/09/23 13:59:27;;;;;;;;;;;18.70;99.80;;;;;;7089688;19;19919;-71
2023/09/23 14:01:59;;;;;;;;;;;18.20;99.20;;;;;;7091697;19;20349;-72
2023/09/23 14:04:33;;;;;;;;;;;17.90;99.90;;;;;;7067470;19;22291;-73
2023/09/23 14:07:07;;;;;;;;;;;17.60;99.90;;;;;;7061986;19;20038;-73
2023/09/23 14:09:40;;;;;;;;;;;17.10;99.90;;;;;;7076931;19;20446;-72
2023/09/23 14:12:13;;;;;;;;;;;16.90;99.90;;;;;;7077508;19;21204;-74
2023/09/23 14:14:46;;;;;;;;;;;16.70;99.90;;;;;;7064137;19;20490;-71
2023/09/23 14:17:22;;;;;;;;;;;16.70;99.90;;;;;;7092729;19;19918;-71
2023/09/23 14:19:55;;;;;;;;;;;16.80;99.90;;;;;;7084950;19;21690;-72
2023/09/23 14:22:28;;;;;;;;;;;16.70;99.90;;;;;;7083115;19;19930;-71
2023/09/23 14:25:04;;;;;;;;;;;16.50;99.90;;;;;;7075543;19;19918;-72
2023/09/23 14:27:37;;;;;;;;;;;16.50;99.90;;;;;;7065116;19;20673;-72
2023/09/23 14:30:10;;;;;;;;;;;16.40;99.90;;;;;;7076365;19;19918;-73
2023/09/23 14:32:43;;;;;;;;;;;16.10;99.90;;;;;;7068139;19;19923;-73
2023/09/23 14:35:20;;;;;;;;;;;16.00;99.90;;;;;;7079709;19;21336;-71
2023/09/23 14:37:54;;;;;;;;;;;16.10;99.90;;;;;;7054364;19;19972;-72
2023/09/23 14:40:29;;;;;;;;;;;16.30;99.90;;;;;;7407952;19;19919;-75
2023/09/23 14:43:02;;;;;;;;;;;16.30;99.90;;;;;;7590773;19;22098;-72
2023/09/23 14:45:34;;;;;;;;;;;16.20;99.90;;;;;;7590694;19;19933;-73
2023/09/23 14:48:06;;;;;;;;;;;16.20;99.90;;;;;;7581585;19;19954;-74
2023/09/23 14:50:39;;;;;;;;;;;16.30;99.90;;;;;;7585860;19;19918;-75
2023/09/23 14:53:13;;;;;;;;;;;16.40;99.90;;;;;;7557023;19;19918;-75